sensor_id;sensor_type;location;lat;lon;timestamp;temperature;humidity
64062;DHT22;50308;47.438;-1.528;2023-04-03T00:00:30;11.00;79.10
64062;DHT22;50308;47.438;-1.528;2023-04-03T00:02:57;11.00;79.30
64062;DHT22;50308;47.438;-1.528;2023-04-03T00:05:22;10.90;79.10
64062;DHT22;50308;47.438;-1.528;2023-04-03T00:07:48;10.90;79.10
64062;DHT22;50308;47.438;-1.528;2023-04-03T00:10:15;10.80;78.90
64062;DHT22;50308;47.438;-1.528;2023-04-03T00:12:41;10.80;79.00
64062;DHT22;50308;47.438;-1.528;2023-04-03T00:15:07;10.80;79.00
64062;DHT22;50308;47.438;-1.528;2023-04-03T00:17:33;10.80;78.80
64062;DHT22;50308;47.438;-1.528;2023-04-03T00:19:59;10.70;78.70
64062;DHT22;50308;47.438;-1.528;2023-04-03T00:22:24;10.70;78.60
64062;DHT22;50308;47.438;-1.528;2023-04-03T00:24:52;10.70;78.70
64062;DHT22;50308;47.438;-1.528;2023-04-03T00:27:17;10.60;78.70
64062;DHT22;50308;47.438;-1.528;2023-04-03T00:29:43;10.50;79.00
64062;DHT22;50308;47.438;-1.528;2023-04-03T00:32:09;10.60;78.70
64062;DHT22;50308;47.438;-1.528;2023-04-03T00:34:34;10.60;78.60
64062;DHT22;50308;47.438;-1.528;2023-04-03T00:37:00;10.60;78.70
64062;DHT22;50308;47.438;-1.528;2023-04-03T00:39:26;10.70;78.40
64062;DHT22;50308;47.438;-1.528;2023-04-03T00:41:51;10.60;78.30
64062;DHT22;50308;47.438;-1.528;2023-04-03T00:47:13;10.60;78.60
64062;DHT22;50308;47.438;-1.528;2023-04-03T00:49:39;10.50;78.90
64062;DHT22;50308;47.438;-1.528;2023-04-03T00:52:11;10.50;78.70
64062;DHT22;50308;47.438;-1.528;2023-04-03T00:54:39;10.50;79.30
64062;DHT22;50308;47.438;-1.528;2023-04-03T00:57:06;10.50;78.60
64062;DHT22;50308;47.438;-1.528;2023-04-03T00:59:36;10.50;78.20
64062;DHT22;50308;47.438;-1.528;2023-04-03T01:02:03;10.50;78.50
64062;DHT22;50308;47.438;-1.528;2023-04-03T01:04:35;10.50;78.60
64062;DHT22;50308;47.438;-1.528;2023-04-03T01:09:33;10.40;78.20
64062;DHT22;50308;47.438;-1.528;2023-04-03T01:14:47;10.30;78.10
64062;DHT22;50308;47.438;-1.528;2023-04-03T01:17:33;10.40;78.30
64062;DHT22;50308;47.438;-1.528;2023-04-03T01:25:45;10.40;78.20
64062;DHT22;50308;47.438;-1.528;2023-04-03T01:28:29;10.30;77.70
64062;DHT22;50308;47.438;-1.528;2023-04-03T01:33:37;10.30;77.90
64062;DHT22;50308;47.438;-1.528;2023-04-03T01:36:03;10.20;78.10
64062;DHT22;50308;47.438;-1.528;2023-04-03T01:38:30;10.20;78.40
64062;DHT22;50308;47.438;-1.528;2023-04-03T01:40:55;10.30;78.00
64062;DHT22;50308;47.438;-1.528;2023-04-03T01:43:21;10.20;78.20
64062;DHT22;50308;47.438;-1.528;2023-04-03T01:45:47;10.20;78.10
64062;DHT22;50308;47.438;-1.528;2023-04-03T01:48:14;10.20;77.90
64062;DHT22;50308;47.438;-1.528;2023-04-03T01:50:41;10.20;77.70
64062;DHT22;50308;47.438;-1.528;2023-04-03T01:53:07;10.10;77.70
64062;DHT22;50308;47.438;-1.528;2023-04-03T01:55:33;10.10;77.90
64062;DHT22;50308;47.438;-1.528;2023-04-03T01:57:58;10.10;78.10
64062;DHT22;50308;47.438;-1.528;2023-04-03T02:00:24;10.10;77.70
64062;DHT22;50308;47.438;-1.528;2023-04-03T02:02:50;10.10;77.60
64062;DHT22;50308;47.438;-1.528;2023-04-03T02:05:16;10.10;77.50
64062;DHT22;50308;47.438;-1.528;2023-04-03T02:07:41;10.00;77.60
64062;DHT22;50308;47.438;-1.528;2023-04-03T02:10:07;10.00;78.00
64062;DHT22;50308;47.438;-1.528;2023-04-03T02:12:33;10.00;77.50
64062;DHT22;50308;47.438;-1.528;2023-04-03T02:14:59;10.00;77.40
64062;DHT22;50308;47.438;-1.528;2023-04-03T02:17:24;10.00;77.60
64062;DHT22;50308;47.438;-1.528;2023-04-03T02:19:50;9.90;77.50
64062;DHT22;50308;47.438;-1.528;2023-04-03T02:22:16;9.90;77.50
64062;DHT22;50308;47.438;-1.528;2023-04-03T02:24:41;9.90;77.50
64062;DHT22;50308;47.438;-1.528;2023-04-03T02:27:07;9.90;77.70
64062;DHT22;50308;47.438;-1.528;2023-04-03T02:29:33;9.90;77.40
64062;DHT22;50308;47.438;-1.528;2023-04-03T02:31:58;9.80;77.50
64062;DHT22;50308;47.438;-1.528;2023-04-03T02:34:24;9.80;77.60
64062;DHT22;50308;47.438;-1.528;2023-04-03T02:36:50;9.80;77.50
64062;DHT22;50308;47.438;-1.528;2023-04-03T02:39:15;9.80;77.40
64062;DHT22;50308;47.438;-1.528;2023-04-03T02:41:41;9.80;77.30
64062;DHT22;50308;47.438;-1.528;2023-04-03T02:44:09;9.80;77.30
64062;DHT22;50308;47.438;-1.528;2023-04-03T02:46:35;9.80;77.20
64062;DHT22;50308;47.438;-1.528;2023-04-03T02:49:01;9.80;77.30
64062;DHT22;50308;47.438;-1.528;2023-04-03T02:51:27;9.70;76.90
64062;DHT22;50308;47.438;-1.528;2023-04-03T02:53:53;9.70;76.90
64062;DHT22;50308;47.438;-1.528;2023-04-03T02:56:18;9.60;77.30
64062;DHT22;50308;47.438;-1.528;2023-04-03T02:58:45;9.60;77.40
64062;DHT22;50308;47.438;-1.528;2023-04-03T03:01:12;9.60;77.40
64062;DHT22;50308;47.438;-1.528;2023-04-03T03:03:37;9.60;77.50
64062;DHT22;50308;47.438;-1.528;2023-04-03T03:06:12;9.60;77.10
64062;DHT22;50308;47.438;-1.528;2023-04-03T03:08:38;9.60;77.00
64062;DHT22;50308;47.438;-1.528;2023-04-03T03:11:04;9.60;77.00
64062;DHT22;50308;47.438;-1.528;2023-04-03T03:13:30;9.60;77.00
64062;DHT22;50308;47.438;-1.528;2023-04-03T03:15:56;9.60;77.00
64062;DHT22;50308;47.438;-1.528;2023-04-03T03:18:22;9.60;78.00
64062;DHT22;50308;47.438;-1.528;2023-04-03T03:20:52;9.50;76.80
64062;DHT22;50308;47.438;-1.528;2023-04-03T03:23:19;9.60;77.20
64062;DHT22;50308;47.438;-1.528;2023-04-03T03:25:44;9.60;77.00
64062;DHT22;50308;47.438;-1.528;2023-04-03T03:28:10;9.50;77.10
64062;DHT22;50308;47.438;-1.528;2023-04-03T03:30:37;9.60;76.60
64062;DHT22;50308;47.438;-1.528;2023-04-03T03:33:03;9.60;76.80
64062;DHT22;50308;47.438;-1.528;2023-04-03T03:35:29;9.50;76.60
64062;DHT22;50308;47.438;-1.528;2023-04-03T03:37:54;9.60;76.40
64062;DHT22;50308;47.438;-1.528;2023-04-03T03:40:20;9.50;76.80
64062;DHT22;50308;47.438;-1.528;2023-04-03T03:42:46;9.60;76.40
64062;DHT22;50308;47.438;-1.528;2023-04-03T03:45:11;9.60;76.60
64062;DHT22;50308;47.438;-1.528;2023-04-03T03:47:37;9.50;76.60
64062;DHT22;50308;47.438;-1.528;2023-04-03T03:50:03;9.60;76.60
64062;DHT22;50308;47.438;-1.528;2023-04-03T03:52:29;9.60;76.60
64062;DHT22;50308;47.438;-1.528;2023-04-03T03:54:55;9.50;76.20
64062;DHT22;50308;47.438;-1.528;2023-04-03T03:57:21;9.50;76.30
64062;DHT22;50308;47.438;-1.528;2023-04-03T03:59:47;9.50;76.60
64062;DHT22;50308;47.438;-1.528;2023-04-03T04:02:14;9.50;76.40
64062;DHT22;50308;47.438;-1.528;2023-04-03T04:04:40;9.50;76.50
64062;DHT22;50308;47.438;-1.528;2023-04-03T04:07:06;9.40;76.40
64062;DHT22;50308;47.438;-1.528;2023-04-03T04:09:31;9.40;76.40
64062;DHT22;50308;47.438;-1.528;2023-04-03T04:11:57;9.40;76.30
64062;DHT22;50308;47.438;-1.528;2023-04-03T04:14:23;9.50;76.20
64062;DHT22;50308;47.438;-1.528;2023-04-03T04:16:49;9.50;76.10
64062;DHT22;50308;47.438;-1.528;2023-04-03T04:19:15;9.40;77.40
64062;DHT22;50308;47.438;-1.528;2023-04-03T04:21:40;9.40;76.10
64062;DHT22;50308;47.438;-1.528;2023-04-03T04:24:08;9.40;76.20
64062;DHT22;50308;47.438;-1.528;2023-04-03T04:26:33;9.40;76.20
64062;DHT22;50308;47.438;-1.528;2023-04-03T04:28:59;9.40;76.50
64062;DHT22;50308;47.438;-1.528;2023-04-03T04:31:25;9.40;76.00
64062;DHT22;50308;47.438;-1.528;2023-04-03T04:33:51;9.30;76.20
64062;DHT22;50308;47.438;-1.528;2023-04-03T04:36:17;9.30;76.50
64062;DHT22;50308;47.438;-1.528;2023-04-03T04:38:42;9.30;76.00
64062;DHT22;50308;47.438;-1.528;2023-04-03T04:41:08;9.30;76.30
64062;DHT22;50308;47.438;-1.528;2023-04-03T04:43:34;9.30;76.00
64062;DHT22;50308;47.438;-1.528;2023-04-03T04:46:07;9.30;76.50
64062;DHT22;50308;47.438;-1.528;2023-04-03T04:48:33;9.20;76.40
64062;DHT22;50308;47.438;-1.528;2023-04-03T04:50:59;9.20;76.30
64062;DHT22;50308;47.438;-1.528;2023-04-03T04:53:25;9.20;76.40
64062;DHT22;50308;47.438;-1.528;2023-04-03T04:55:52;9.10;76.40
64062;DHT22;50308;47.438;-1.528;2023-04-03T04:58:18;9.10;76.20
64062;DHT22;50308;47.438;-1.528;2023-04-03T05:00:43;9.10;76.30
64062;DHT22;50308;47.438;-1.528;2023-04-03T05:03:09;9.10;76.20
64062;DHT22;50308;47.438;-1.528;2023-04-03T05:05:35;9.10;76.10
64062;DHT22;50308;47.438;-1.528;2023-04-03T05:08:01;9.10;76.10
64062;DHT22;50308;47.438;-1.528;2023-04-03T05:10:28;9.00;76.20
64062;DHT22;50308;47.438;-1.528;2023-04-03T05:12:53;9.10;76.40
64062;DHT22;50308;47.438;-1.528;2023-04-03T05:15:19;9.00;76.00
64062;DHT22;50308;47.438;-1.528;2023-04-03T05:17:45;9.00;76.00
64062;DHT22;50308;47.438;-1.528;2023-04-03T05:20:12;9.00;75.80
64062;DHT22;50308;47.438;-1.528;2023-04-03T05:22:38;8.90;76.20
64062;DHT22;50308;47.438;-1.528;2023-04-03T05:25:04;9.00;75.90
64062;DHT22;50308;47.438;-1.528;2023-04-03T05:27:30;9.00;76.00
64062;DHT22;50308;47.438;-1.528;2023-04-03T05:29:56;9.00;76.10
64062;DHT22;50308;47.438;-1.528;2023-04-03T05:32:23;8.90;75.70
64062;DHT22;50308;47.438;-1.528;2023-04-03T05:34:49;8.90;75.80
64062;DHT22;50308;47.438;-1.528;2023-04-03T05:37:15;8.90;76.10
64062;DHT22;50308;47.438;-1.528;2023-04-03T05:39:40;9.00;76.10
64062;DHT22;50308;47.438;-1.528;2023-04-03T05:42:07;8.90;76.20
64062;DHT22;50308;47.438;-1.528;2023-04-03T05:44:33;8.90;75.90
64062;DHT22;50308;47.438;-1.528;2023-04-03T05:46:59;8.90;76.10
64062;DHT22;50308;47.438;-1.528;2023-04-03T05:49:25;9.00;76.10
64062;DHT22;50308;47.438;-1.528;2023-04-03T05:51:50;9.00;76.20
64062;DHT22;50308;47.438;-1.528;2023-04-03T05:54:26;9.00;76.40
64062;DHT22;50308;47.438;-1.528;2023-04-03T05:56:52;9.00;76.50
64062;DHT22;50308;47.438;-1.528;2023-04-03T05:59:19;9.00;76.70
64062;DHT22;50308;47.438;-1.528;2023-04-03T06:01:45;9.10;76.90
64062;DHT22;50308;47.438;-1.528;2023-04-03T06:04:11;9.20;76.80
64062;DHT22;50308;47.438;-1.528;2023-04-03T06:09:10;9.30;76.40
64062;DHT22;50308;47.438;-1.528;2023-04-03T06:11:37;9.30;76.30
64062;DHT22;50308;47.438;-1.528;2023-04-03T06:14:02;9.30;76.30
64062;DHT22;50308;47.438;-1.528;2023-04-03T06:16:28;9.40;76.60
64062;DHT22;50308;47.438;-1.528;2023-04-03T06:18:54;9.40;76.10
64062;DHT22;50308;47.438;-1.528;2023-04-03T06:21:20;9.50;76.30
64062;DHT22;50308;47.438;-1.528;2023-04-03T06:23:46;9.50;76.10
64062;DHT22;50308;47.438;-1.528;2023-04-03T06:26:11;9.50;76.30
64062;DHT22;50308;47.438;-1.528;2023-04-03T06:28:37;9.50;76.20
64062;DHT22;50308;47.438;-1.528;2023-04-03T06:31:03;9.50;76.50
64062;DHT22;50308;47.438;-1.528;2023-04-03T06:33:28;9.50;76.00
64062;DHT22;50308;47.438;-1.528;2023-04-03T06:35:58;9.60;76.40
64062;DHT22;50308;47.438;-1.528;2023-04-03T06:38:24;9.60;76.00
64062;DHT22;50308;47.438;-1.528;2023-04-03T06:40:50;9.60;76.20
64062;DHT22;50308;47.438;-1.528;2023-04-03T06:43:17;9.70;76.20
64062;DHT22;50308;47.438;-1.528;2023-04-03T06:45:43;9.60;76.30
64062;DHT22;50308;47.438;-1.528;2023-04-03T06:48:08;9.60;76.50
64062;DHT22;50308;47.438;-1.528;2023-04-03T06:50:34;9.60;76.30
64062;DHT22;50308;47.438;-1.528;2023-04-03T06:53:00;9.70;76.50
64062;DHT22;50308;47.438;-1.528;2023-04-03T06:55:26;9.70;76.70
64062;DHT22;50308;47.438;-1.528;2023-04-03T06:57:52;9.80;76.50
64062;DHT22;50308;47.438;-1.528;2023-04-03T07:00:18;9.70;76.40
64062;DHT22;50308;47.438;-1.528;2023-04-03T07:02:44;9.70;76.60
64062;DHT22;50308;47.438;-1.528;2023-04-03T07:05:11;9.80;76.50
64062;DHT22;50308;47.438;-1.528;2023-04-03T07:07:37;9.80;76.10
64062;DHT22;50308;47.438;-1.528;2023-04-03T07:10:03;9.90;75.80
64062;DHT22;50308;47.438;-1.528;2023-04-03T07:12:30;9.90;75.60
64062;DHT22;50308;47.438;-1.528;2023-04-03T07:14:55;9.80;76.20
64062;DHT22;50308;47.438;-1.528;2023-04-03T07:17:21;9.90;76.40
64062;DHT22;50308;47.438;-1.528;2023-04-03T07:19:47;10.00;76.60
64062;DHT22;50308;47.438;-1.528;2023-04-03T07:22:12;10.00;76.60
64062;DHT22;50308;47.438;-1.528;2023-04-03T07:24:38;10.10;76.20
64062;DHT22;50308;47.438;-1.528;2023-04-03T07:27:04;10.10;76.10
64062;DHT22;50308;47.438;-1.528;2023-04-03T07:29:29;10.10;76.50
64062;DHT22;50308;47.438;-1.528;2023-04-03T07:31:55;10.20;75.80
64062;DHT22;50308;47.438;-1.528;2023-04-03T07:34:21;10.20;75.70
64062;DHT22;50308;47.438;-1.528;2023-04-03T07:36:47;10.30;75.80
64062;DHT22;50308;47.438;-1.528;2023-04-03T07:39:12;10.30;75.80
64062;DHT22;50308;47.438;-1.528;2023-04-03T07:41:38;10.30;75.80
64062;DHT22;50308;47.438;-1.528;2023-04-03T07:44:04;10.40;75.80
64062;DHT22;50308;47.438;-1.528;2023-04-03T07:46:31;10.40;75.80
64062;DHT22;50308;47.438;-1.528;2023-04-03T07:48:56;10.40;75.80
64062;DHT22;50308;47.438;-1.528;2023-04-03T07:51:22;10.50;75.50
64062;DHT22;50308;47.438;-1.528;2023-04-03T07:53:50;10.50;75.80
64062;DHT22;50308;47.438;-1.528;2023-04-03T07:56:16;10.50;75.80
64062;DHT22;50308;47.438;-1.528;2023-04-03T07:58:42;10.60;75.70
64062;DHT22;50308;47.438;-1.528;2023-04-03T08:01:08;10.70;75.40
64062;DHT22;50308;47.438;-1.528;2023-04-03T08:03:34;10.70;75.70
64062;DHT22;50308;47.438;-1.528;2023-04-03T08:06:07;10.70;75.70
64062;DHT22;50308;47.438;-1.528;2023-04-03T08:08:33;10.70;76.00
64062;DHT22;50308;47.438;-1.528;2023-04-03T08:11:01;10.60;75.60
64062;DHT22;50308;47.438;-1.528;2023-04-03T08:13:28;10.60;75.90
64062;DHT22;50308;47.438;-1.528;2023-04-03T08:15:55;10.70;75.70
64062;DHT22;50308;47.438;-1.528;2023-04-03T08:18:23;10.70;75.60
64062;DHT22;50308;47.438;-1.528;2023-04-03T08:20:50;10.80;75.60
64062;DHT22;50308;47.438;-1.528;2023-04-03T08:23:17;10.90;75.60
64062;DHT22;50308;47.438;-1.528;2023-04-03T08:25:43;10.90;75.50
64062;DHT22;50308;47.438;-1.528;2023-04-03T08:28:10;11.00;75.30
64062;DHT22;50308;47.438;-1.528;2023-04-03T08:30:39;11.00;75.60
64062;DHT22;50308;47.438;-1.528;2023-04-03T08:33:05;11.00;75.40
64062;DHT22;50308;47.438;-1.528;2023-04-03T08:35:31;11.00;75.30
64062;DHT22;50308;47.438;-1.528;2023-04-03T08:37:57;11.00;75.40
64062;DHT22;50308;47.438;-1.528;2023-04-03T08:40:23;11.00;75.20
64062;DHT22;50308;47.438;-1.528;2023-04-03T08:45:51;11.00;75.40
64062;DHT22;50308;47.438;-1.528;2023-04-03T08:48:27;10.90;75.50
64062;DHT22;50308;47.438;-1.528;2023-04-03T08:51:06;11.00;75.30
64062;DHT22;50308;47.438;-1.528;2023-04-03T08:53:41;11.00;75.90
64062;DHT22;50308;47.438;-1.528;2023-04-03T08:56:09;11.00;75.40
64062;DHT22;50308;47.438;-1.528;2023-04-03T08:59:00;11.00;75.60
64062;DHT22;50308;47.438;-1.528;2023-04-03T09:01:33;11.00;76.10
64062;DHT22;50308;47.438;-1.528;2023-04-03T09:04:01;11.00;75.60
64062;DHT22;50308;47.438;-1.528;2023-04-03T09:06:31;11.10;75.40
64062;DHT22;50308;47.438;-1.528;2023-04-03T09:09:06;11.10;75.30
64062;DHT22;50308;47.438;-1.528;2023-04-03T09:14:33;11.10;75.80
64062;DHT22;50308;47.438;-1.528;2023-04-03T09:22:47;11.20;76.20
64062;DHT22;50308;47.438;-1.528;2023-04-03T09:25:33;11.20;75.70
64062;DHT22;50308;47.438;-1.528;2023-04-03T09:28:01;11.30;75.80
64062;DHT22;50308;47.438;-1.528;2023-04-03T09:30:28;11.40;75.40
64062;DHT22;50308;47.438;-1.528;2023-04-03T09:32:56;11.30;75.90
64062;DHT22;50308;47.438;-1.528;2023-04-03T09:35:34;11.30;75.90
64062;DHT22;50308;47.438;-1.528;2023-04-03T09:40:48;11.30;75.40
64062;DHT22;50308;47.438;-1.528;2023-04-03T09:45:44;11.30;75.40
64062;DHT22;50308;47.438;-1.528;2023-04-03T09:59:25;11.40;75.40
64062;DHT22;50308;47.438;-1.528;2023-04-03T10:01:34;11.40;75.20
64062;DHT22;50308;47.438;-1.528;2023-04-03T10:04:12;11.30;75.60
64062;DHT22;50308;47.438;-1.528;2023-04-03T10:06:47;11.30;75.90
64062;DHT22;50308;47.438;-1.528;2023-04-03T10:09:25;11.30;75.50
64062;DHT22;50308;47.438;-1.528;2023-04-03T10:12:12;11.50;75.30
64062;DHT22;50308;47.438;-1.528;2023-04-03T10:14:59;11.50;74.80
64062;DHT22;50308;47.438;-1.528;2023-04-03T10:17:50;11.50;74.80
64062;DHT22;50308;47.438;-1.528;2023-04-03T10:20:39;11.40;74.70
64062;DHT22;50308;47.438;-1.528;2023-04-03T10:23:21;11.40;75.30
64062;DHT22;50308;47.438;-1.528;2023-04-03T10:29:16;11.40;75.40
64062;DHT22;50308;47.438;-1.528;2023-04-03T10:34:44;11.40;75.40
64062;DHT22;50308;47.438;-1.528;2023-04-03T10:37:26;11.50;75.50
64062;DHT22;50308;47.438;-1.528;2023-04-03T10:50:27;11.40;74.90
64062;DHT22;50308;47.438;-1.528;2023-04-03T10:55:48;11.40;75.60
64062;DHT22;50308;47.438;-1.528;2023-04-03T10:58:39;11.40;75.70
64062;DHT22;50308;47.438;-1.528;2023-04-03T11:01:09;11.40;75.40
64062;DHT22;50308;47.438;-1.528;2023-04-03T11:03:43;11.40;75.40
64062;DHT22;50308;47.438;-1.528;2023-04-03T11:06:13;11.40;75.50
64062;DHT22;50308;47.438;-1.528;2023-04-03T11:09:03;11.40;75.20
64062;DHT22;50308;47.438;-1.528;2023-04-03T11:11:36;11.50;75.30
64062;DHT22;50308;47.438;-1.528;2023-04-03T11:14:09;11.40;75.50
64062;DHT22;50308;47.438;-1.528;2023-04-03T11:16:41;11.40;75.00
64062;DHT22;50308;47.438;-1.528;2023-04-03T11:19:20;11.50;75.20
64062;DHT22;50308;47.438;-1.528;2023-04-03T11:22:03;11.40;75.10
64062;DHT22;50308;47.438;-1.528;2023-04-03T11:24:32;11.50;75.10
64062;DHT22;50308;47.438;-1.528;2023-04-03T11:27:00;11.50;74.60
64062;DHT22;50308;47.438;-1.528;2023-04-03T11:29:35;11.50;75.00
64062;DHT22;50308;47.438;-1.528;2023-04-03T11:34:57;11.60;74.90
64062;DHT22;50308;47.438;-1.528;2023-04-03T11:40:04;11.60;74.50
64062;DHT22;50308;47.438;-1.528;2023-04-03T11:42:41;11.60;74.70
64062;DHT22;50308;47.438;-1.528;2023-04-03T11:47:57;11.70;74.70
64062;DHT22;50308;47.438;-1.528;2023-04-03T11:50:41;11.60;75.50
64062;DHT22;50308;47.438;-1.528;2023-04-03T11:55:43;11.60;75.00
64062;DHT22;50308;47.438;-1.528;2023-04-03T11:58:17;11.70;74.70
64062;DHT22;50308;47.438;-1.528;2023-04-03T12:08:45;11.80;75.10
64062;DHT22;50308;47.438;-1.528;2023-04-03T12:19:27;12.00;74.00
64062;DHT22;50308;47.438;-1.528;2023-04-03T12:24:32;12.00;74.20
64062;DHT22;50308;47.438;-1.528;2023-04-03T12:27:02;12.00;73.90
64062;DHT22;50308;47.438;-1.528;2023-04-03T12:32:35;12.00;73.80
64062;DHT22;50308;47.438;-1.528;2023-04-03T12:35:29;12.10;73.60
64062;DHT22;50308;47.438;-1.528;2023-04-03T12:44:10;12.10;73.90
64062;DHT22;50308;47.438;-1.528;2023-04-03T12:46:43;12.20;73.80
64062;DHT22;50308;47.438;-1.528;2023-04-03T12:51:54;12.20;73.70
64062;DHT22;50308;47.438;-1.528;2023-04-03T12:54:32;12.20;75.10
64062;DHT22;50308;47.438;-1.528;2023-04-03T12:59:36;12.20;74.00
64062;DHT22;50308;47.438;-1.528;2023-04-03T13:02:15;12.20;74.00
64062;DHT22;50308;47.438;-1.528;2023-04-03T13:04:43;12.30;74.10
64062;DHT22;50308;47.438;-1.528;2023-04-03T13:07:26;12.20;74.10
64062;DHT22;50308;47.438;-1.528;2023-04-03T13:15:25;12.30;74.90
64062;DHT22;50308;47.438;-1.528;2023-04-03T13:17:52;12.40;74.60
64062;DHT22;50308;47.438;-1.528;2023-04-03T13:20:28;12.40;74.60
64062;DHT22;50308;47.438;-1.528;2023-04-03T13:23:04;12.40;74.50
64062;DHT22;50308;47.438;-1.528;2023-04-03T13:25:33;12.40;74.40
64062;DHT22;50308;47.438;-1.528;2023-04-03T13:28:00;12.40;74.60
64062;DHT22;50308;47.438;-1.528;2023-04-03T13:30:29;12.40;73.70
64062;DHT22;50308;47.438;-1.528;2023-04-03T13:32:57;12.40;74.30
64062;DHT22;50308;47.438;-1.528;2023-04-03T13:35:38;12.40;74.10
64062;DHT22;50308;47.438;-1.528;2023-04-03T13:40:56;12.40;74.40
64062;DHT22;50308;47.438;-1.528;2023-04-03T13:43:29;12.40;73.90
64062;DHT22;50308;47.438;-1.528;2023-04-03T13:46:03;12.40;74.10
64062;DHT22;50308;47.438;-1.528;2023-04-03T13:48:42;12.40;73.80
64062;DHT22;50308;47.438;-1.528;2023-04-03T13:53:51;12.40;73.20
64062;DHT22;50308;47.438;-1.528;2023-04-03T13:56:38;12.40;74.30
64062;DHT22;50308;47.438;-1.528;2023-04-03T14:04:24;12.50;74.80
64062;DHT22;50308;47.438;-1.528;2023-04-03T14:06:51;12.60;74.60
64062;DHT22;50308;47.438;-1.528;2023-04-03T14:09:18;12.60;75.20
64062;DHT22;50308;47.438;-1.528;2023-04-03T14:11:45;12.60;75.40
64062;DHT22;50308;47.438;-1.528;2023-04-03T14:14:14;12.60;75.50
64062;DHT22;50308;47.438;-1.528;2023-04-03T14:16:45;12.60;74.80
64062;DHT22;50308;47.438;-1.528;2023-04-03T14:19:21;12.60;75.10
64062;DHT22;50308;47.438;-1.528;2023-04-03T14:21:48;12.60;74.90
64062;DHT22;50308;47.438;-1.528;2023-04-03T14:24:14;12.60;75.60
64062;DHT22;50308;47.438;-1.528;2023-04-03T14:26:39;12.60;75.20
64062;DHT22;50308;47.438;-1.528;2023-04-03T14:29:06;12.70;75.50
64062;DHT22;50308;47.438;-1.528;2023-04-03T14:31:32;12.70;75.30
64062;DHT22;50308;47.438;-1.528;2023-04-03T14:33:57;12.70;75.10
64062;DHT22;50308;47.438;-1.528;2023-04-03T14:36:26;12.70;75.60
64062;DHT22;50308;47.438;-1.528;2023-04-03T14:38:53;12.70;75.60
64062;DHT22;50308;47.438;-1.528;2023-04-03T14:41:21;12.70;75.50
64062;DHT22;50308;47.438;-1.528;2023-04-03T14:43:48;12.70;75.30
64062;DHT22;50308;47.438;-1.528;2023-04-03T14:46:16;12.70;75.20
64062;DHT22;50308;47.438;-1.528;2023-04-03T14:48:42;12.70;75.40
64062;DHT22;50308;47.438;-1.528;2023-04-03T14:51:11;12.70;75.20
64062;DHT22;50308;47.438;-1.528;2023-04-03T14:53:37;12.70;75.60
64062;DHT22;50308;47.438;-1.528;2023-04-03T14:56:10;12.80;75.50
64062;DHT22;50308;47.438;-1.528;2023-04-03T14:58:36;12.70;75.40
64062;DHT22;50308;47.438;-1.528;2023-04-03T15:01:02;12.80;75.70
64062;DHT22;50308;47.438;-1.528;2023-04-03T15:03:28;12.80;75.40
64062;DHT22;50308;47.438;-1.528;2023-04-03T15:05:53;12.80;75.70
64062;DHT22;50308;47.438;-1.528;2023-04-03T15:08:24;12.80;75.50
64062;DHT22;50308;47.438;-1.528;2023-04-03T15:10:51;12.80;75.70
64062;DHT22;50308;47.438;-1.528;2023-04-03T15:13:21;12.80;75.70
64062;DHT22;50308;47.438;-1.528;2023-04-03T15:15:47;12.80;75.60
64062;DHT22;50308;47.438;-1.528;2023-04-03T15:18:20;12.80;75.50
64062;DHT22;50308;47.438;-1.528;2023-04-03T15:20:45;12.80;75.60
64062;DHT22;50308;47.438;-1.528;2023-04-03T15:23:13;12.80;75.60
64062;DHT22;50308;47.438;-1.528;2023-04-03T15:25:44;12.80;75.50
64062;DHT22;50308;47.438;-1.528;2023-04-03T15:28:39;12.80;75.70
64062;DHT22;50308;47.438;-1.528;2023-04-03T15:31:06;12.90;75.60
64062;DHT22;50308;47.438;-1.528;2023-04-03T15:33:34;12.90;75.50
64062;DHT22;50308;47.438;-1.528;2023-04-03T15:36:00;12.90;75.40
64062;DHT22;50308;47.438;-1.528;2023-04-03T15:38:26;12.90;75.60
64062;DHT22;50308;47.438;-1.528;2023-04-03T15:40:52;12.90;75.60
64062;DHT22;50308;47.438;-1.528;2023-04-03T15:43:18;12.90;75.60
64062;DHT22;50308;47.438;-1.528;2023-04-03T15:45:45;12.90;75.60
64062;DHT22;50308;47.438;-1.528;2023-04-03T15:48:11;12.90;75.70
64062;DHT22;50308;47.438;-1.528;2023-04-03T15:50:38;12.90;75.50
64062;DHT22;50308;47.438;-1.528;2023-04-03T15:53:04;12.90;75.40
64062;DHT22;50308;47.438;-1.528;2023-04-03T15:55:33;13.00;75.40
64062;DHT22;50308;47.438;-1.528;2023-04-03T15:57:59;13.00;75.20
64062;DHT22;50308;47.438;-1.528;2023-04-03T16:00:27;13.00;75.20
64062;DHT22;50308;47.438;-1.528;2023-04-03T16:02:56;13.00;75.30
64062;DHT22;50308;47.438;-1.528;2023-04-03T16:05:23;13.00;75.70
64062;DHT22;50308;47.438;-1.528;2023-04-03T16:07:50;13.00;75.30
64062;DHT22;50308;47.438;-1.528;2023-04-03T16:10:17;13.00;75.40
64062;DHT22;50308;47.438;-1.528;2023-04-03T16:12:43;13.00;75.40
64062;DHT22;50308;47.438;-1.528;2023-04-03T16:15:10;13.00;75.40
64062;DHT22;50308;47.438;-1.528;2023-04-03T16:17:37;13.00;75.20
64062;DHT22;50308;47.438;-1.528;2023-04-03T16:20:05;13.10;75.10
64062;DHT22;50308;47.438;-1.528;2023-04-03T16:22:31;13.10;75.40
64062;DHT22;50308;47.438;-1.528;2023-04-03T16:24:57;13.10;75.30
64062;DHT22;50308;47.438;-1.528;2023-04-03T16:27:23;13.10;75.40
64062;DHT22;50308;47.438;-1.528;2023-04-03T16:29:53;13.00;76.40
64062;DHT22;50308;47.438;-1.528;2023-04-03T16:32:20;13.10;75.20
64062;DHT22;50308;47.438;-1.528;2023-04-03T16:34:46;13.10;75.10
64062;DHT22;50308;47.438;-1.528;2023-04-03T16:37:11;13.10;75.40
64062;DHT22;50308;47.438;-1.528;2023-04-03T16:39:37;13.10;75.30
64062;DHT22;50308;47.438;-1.528;2023-04-03T16:42:03;13.10;75.20
64062;DHT22;50308;47.438;-1.528;2023-04-03T16:44:28;13.10;75.40
64062;DHT22;50308;47.438;-1.528;2023-04-03T16:46:54;13.10;75.10
64062;DHT22;50308;47.438;-1.528;2023-04-03T16:49:20;13.10;75.20
64062;DHT22;50308;47.438;-1.528;2023-04-03T16:51:47;13.10;75.20
64062;DHT22;50308;47.438;-1.528;2023-04-03T16:54:13;13.10;75.10
64062;DHT22;50308;47.438;-1.528;2023-04-03T16:56:39;13.10;75.10
64062;DHT22;50308;47.438;-1.528;2023-04-03T16:59:05;13.10;75.10
64062;DHT22;50308;47.438;-1.528;2023-04-03T17:01:31;13.10;75.00
64062;DHT22;50308;47.438;-1.528;2023-04-03T17:03:57;13.10;75.00
64062;DHT22;50308;47.438;-1.528;2023-04-03T17:06:23;13.10;74.80
64062;DHT22;50308;47.438;-1.528;2023-04-03T17:08:51;13.10;75.00
64062;DHT22;50308;47.438;-1.528;2023-04-03T17:11:18;13.10;75.00
64062;DHT22;50308;47.438;-1.528;2023-04-03T17:13:43;13.10;74.80
64062;DHT22;50308;47.438;-1.528;2023-04-03T17:16:13;13.10;74.70
64062;DHT22;50308;47.438;-1.528;2023-04-03T17:18:39;13.10;74.80
64062;DHT22;50308;47.438;-1.528;2023-04-03T17:21:06;13.10;74.80
64062;DHT22;50308;47.438;-1.528;2023-04-03T17:23:32;13.10;74.70
64062;DHT22;50308;47.438;-1.528;2023-04-03T17:26:03;13.10;74.90
64062;DHT22;50308;47.438;-1.528;2023-04-03T17:28:29;13.10;74.90
64062;DHT22;50308;47.438;-1.528;2023-04-03T17:30:55;13.10;75.00
64062;DHT22;50308;47.438;-1.528;2023-04-03T17:33:22;13.10;75.40